Time;durP1;ratioP1;P1;durP2;ratioP2;P2;SDS_P1;SDS_P2;PMS_P1;PMS_P2;Temp;Humidity;BMP_temperature;BMP_pressure;BME280_temperature;BME280_humidity;BME280_pressure;Samples;Min_cycle;Max_cycle;Signal;HPM_P1;HPM_P2
2022/12/11 00:00:00;;;;;;;;;;;9.10;99.90;;;;;;5040123;28;20375;-73
2022/12/11 00:02:27;;;;;;;;;;;9.10;99.90;;;;;;5057699;28;20503;-74
2022/12/11 00:04:56;;;;;;;;;;;9.10;99.90;;;;;;5056350;28;20674;-73
2022/12/11 00:07:50;;;;;;;;;;;9.10;99.90;;;;;;5057403;28;19916;-73
2022/12/11 00:13:39;;;;;;;;;;;9.10;99.90;;;;;;5066587;28;20001;-73
2022/12/11 00:16:10;;;;;;;;;;;9.10;99.90;;;;;;5050405;28;19955;-73
2022/12/11 00:18:51;;;;;;;;;;;9.10;99.90;;;;;;5056788;28;19931;-73
2022/12/11 00:21:19;;;;;;;;;;;9.10;99.90;;;;;;5057596;28;19913;-73
2022/12/11 00:23:45;;;;;;;;;;;9.10;99.90;;;;;;5056981;28;19917;-74
2022/12/11 00:26:17;;;;;;;;;;;9.00;99.90;;;;;;5056746;28;19920;-74
2022/12/11 00:29:02;;;;;;;;;;;9.00;99.90;;;;;;5074365;28;19916;-75
2022/12/11 00:31:28;;;;;;;;;;;9.00;99.90;;;;;;5070910;28;19917;-73
2022/12/11 00:33:54;;;;;;;;;;;8.90;99.90;;;;;;5070441;28;20299;-74
2022/12/11 00:36:24;;;;;;;;;;;9.00;99.90;;;;;;5061463;28;20115;-74
2022/12/11 00:38:51;;;;;;;;;;;9.00;99.90;;;;;;5055782;28;19913;-74
2022/12/11 00:41:30;;;;;;;;;;;;;;;;;;;;;
2022/12/11 00:50:06;;;;;;;;;;;8.90;99.90;;;;;;4968105;28;19925;-71
2022/12/11 00:52:42;;;;;;;;;;;8.90;99.90;;;;;;4984668;28;21903;-73
2022/12/11 00:55:12;;;;;;;;;;;8.90;99.90;;;;;;5054502;28;20033;-71
2022/12/11 00:57:38;;;;;;;;;;;8.90;99.90;;;;;;5055535;28;19920;-74
2022/12/11 01:00:19;;;;;;;;;;;8.80;99.90;;;;;;5056293;28;19916;-72
2022/12/11 01:02:47;;;;;;;;;;;8.90;99.90;;;;;;5055359;28;19921;-73
2022/12/11 01:08:41;;;;;;;;;;;8.90;99.90;;;;;;5056465;28;19987;-72
2022/12/11 01:11:08;;;;;;;;;;;8.90;99.90;;;;;;5057289;28;19920;-72
2022/12/11 01:13:45;;;;;;;;;;;;;;;;;;;;;
2022/12/11 01:16:12;;;;;;;;;;;9.00;99.90;;;;;;5042966;28;19923;-72
2022/12/11 01:18:39;;;;;;;;;;;9.00;99.90;;;;;;5066809;28;19912;-72
2022/12/11 01:21:21;;;;;;;;;;;9.00;99.90;;;;;;5074569;28;19908;-74
2022/12/11 01:24:07;;;;;;;;;;;9.00;99.90;;;;;;5072094;28;20046;-74
2022/12/11 01:26:57;;;;;;;;;;;9.00;99.90;;;;;;5068842;28;19916;-72
2022/12/11 01:29:22;;;;;;;;;;;9.00;99.90;;;;;;5071251;28;20425;-74
2022/12/11 01:31:56;;;;;;;;;;;9.00;99.90;;;;;;5059284;28;19920;-72
2022/12/11 01:34:43;;;;;;;;;;;9.00;99.90;;;;;;5056534;28;19994;-75
2022/12/11 01:37:11;;;;;;;;;;;9.00;99.90;;;;;;5070222;28;19939;-72
2022/12/11 01:40:12;;;;;;;;;;;8.90;99.90;;;;;;5072607;28;19927;-75
2022/12/11 01:42:41;;;;;;;;;;;8.90;99.90;;;;;;5042709;28;19921;-71
2022/12/11 01:45:25;;;;;;;;;;;8.90;99.90;;;;;;5054585;28;19913;-72
2022/12/11 01:48:03;;;;;;;;;;;8.90;99.90;;;;;;5056720;28;20330;-73
2022/12/11 01:50:29;;;;;;;;;;;8.90;99.90;;;;;;5055841;28;19974;-72
2022/12/11 01:53:06;;;;;;;;;;;;;;;;;;;;;
2022/12/11 01:55:33;;;;;;;;;;;8.90;99.90;;;;;;5043602;28;19935;-72
2022/12/11 01:58:00;;;;;;;;;;;9.00;99.90;;;;;;5057506;28;19916;-72
2022/12/11 02:00:36;;;;;;;;;;;;;;;;;;;;;
2022/12/11 02:03:23;;;;;;;;;;;9.00;99.90;;;;;;5050937;28;19938;-72
2022/12/11 02:08:52;;;;;;;;;;;9.00;99.90;;;;;;5065151;28;20375;-71
2022/12/11 02:11:22;;;;;;;;;;;9.10;99.90;;;;;;5070797;28;19913;-72
2022/12/11 02:17:16;;;;;;;;;;;9.00;99.90;;;;;;5064464;28;20054;-71
2022/12/11 02:19:54;;;;;;;;;;;9.10;99.90;;;;;;5065669;28;19952;-72
2022/12/11 02:22:44;;;;;;;;;;;9.10;99.90;;;;;;5070942;28;19955;-72
2022/12/11 02:25:15;;;;;;;;;;;9.10;99.90;;;;;;5069100;28;19967;-73
2022/12/11 02:31:12;;;;;;;;;;;9.00;99.90;;;;;;5072019;28;19919;-72
2022/12/11 02:37:11;;;;;;;;;;;;;;;;;;;;;
2022/12/11 02:39:38;;;;;;;;;;;9.00;99.90;;;;;;5067598;28;19921;-72
2022/12/11 02:57:46;;;;;;;;;;;8.90;99.90;;;;;;5072170;28;19919;-72
2022/12/11 03:00:35;;;;;;;;;;;9.00;99.90;;;;;;5065821;28;20034;-72
2022/12/11 03:03:01;;;;;;;;;;;8.90;99.90;;;;;;5059849;28;19913;-73
2022/12/11 03:05:53;;;;;;;;;;;8.80;99.90;;;;;;5067541;28;19913;-73
2022/12/11 03:08:27;;;;;;;;;;;8.80;99.90;;;;;;5071534;28;19944;-73
2022/12/11 03:10:56;;;;;;;;;;;8.80;99.90;;;;;;5072481;28;19944;-73
2022/12/11 03:13:41;;;;;;;;;;;8.80;99.90;;;;;;5070278;28;20001;-74
2022/12/11 03:16:42;;;;;;;;;;;8.80;99.90;;;;;;5042350;28;19952;-73
2022/12/11 03:19:20;;;;;;;;;;;8.80;99.90;;;;;;5021561;28;19912;-72
2022/12/11 03:22:04;;;;;;;;;;;8.90;99.90;;;;;;5065843;28;19912;-72
2022/12/11 03:28:02;;;;;;;;;;;8.80;99.90;;;;;;5072997;28;19924;-73
2022/12/11 03:33:46;;;;;;;;;;;8.80;99.90;;;;;;5072564;28;19967;-72
2022/12/11 03:36:20;;;;;;;;;;;8.90;99.90;;;;;;5051198;28;19935;-71
2022/12/11 03:38:49;;;;;;;;;;;8.80;99.90;;;;;;5069244;28;19924;-75
2022/12/11 03:46:59;;;;;;;;;;;8.90;99.90;;;;;;5071229;28;19924;-72
2022/12/11 03:52:54;;;;;;;;;;;8.90;99.90;;;;;;5058806;28;19927;-72
2022/12/11 03:55:20;;;;;;;;;;;8.90;99.90;;;;;;5058352;28;19917;-72
2022/12/11 04:06:43;;;;;;;;;;;8.80;99.90;;;;;;5073424;28;20047;-73
2022/12/11 04:09:18;;;;;;;;;;;8.80;99.90;;;;;;5062421;28;19959;-72
2022/12/11 04:11:44;;;;;;;;;;;8.80;99.90;;;;;;5076898;28;19998;-72
2022/12/11 04:17:02;;;;;;;;;;;8.90;99.90;;;;;;5057272;28;20014;-72
2022/12/11 04:37:40;;;;;;;;;;;8.80;99.90;;;;;;5069276;28;19947;-72
2022/12/11 04:40:09;;;;;;;;;;;8.80;99.90;;;;;;5068809;28;19916;-74
2022/12/11 04:42:44;;;;;;;;;;;8.90;99.90;;;;;;5062842;28;19920;-72
2022/12/11 04:45:14;;;;;;;;;;;8.90;99.90;;;;;;5070015;28;19945;-72
2022/12/11 04:47:47;;;;;;;;;;;8.90;99.90;;;;;;5071290;28;19956;-72
2022/12/11 04:50:13;;;;;;;;;;;8.90;99.90;;;;;;5067793;28;19917;-73
2022/12/11 04:55:49;;;;;;;;;;;8.80;99.90;;;;;;4981731;28;19988;-73
2022/12/11 04:58:18;;;;;;;;;;;8.80;99.90;;;;;;5070052;28;20565;-72
2022/12/11 05:01:02;;;;;;;;;;;8.80;99.90;;;;;;5068410;28;20375;-72
2022/12/11 05:03:31;;;;;;;;;;;8.80;99.90;;;;;;5057242;28;20435;-72
2022/12/11 05:05:57;;;;;;;;;;;8.80;99.90;;;;;;5073284;28;19913;-72
2022/12/11 05:08:32;;;;;;;;;;;8.80;99.90;;;;;;5066918;28;20505;-72
2022/12/11 05:11:14;;;;;;;;;;;8.80;99.90;;;;;;5068849;28;19913;-72
2022/12/11 05:13:42;;;;;;;;;;;8.80;99.90;;;;;;5067770;28;20380;-71
2022/12/11 05:19:34;;;;;;;;;;;8.80;99.90;;;;;;5052286;28;19917;-71
2022/12/11 05:22:00;;;;;;;;;;;8.80;99.90;;;;;;5053261;28;19908;-72
2022/12/11 05:24:26;;;;;;;;;;;8.80;99.90;;;;;;5052797;28;19954;-72
2022/12/11 05:26:55;;;;;;;;;;;8.80;99.90;;;;;;5052189;28;19908;-71
2022/12/11 05:29:20;;;;;;;;;;;8.70;99.90;;;;;;5053168;28;19932;-72
2022/12/11 05:31:46;;;;;;;;;;;8.60;99.90;;;;;;5054916;28;19909;-72
2022/12/11 05:34:14;;;;;;;;;;;8.70;99.90;;;;;;5055848;28;19908;-72
2022/12/11 05:36:39;;;;;;;;;;;8.70;99.90;;;;;;5066866;28;20010;-72
2022/12/11 05:39:13;;;;;;;;;;;8.60;99.90;;;;;;5066830;28;19963;-72
2022/12/11 05:41:41;;;;;;;;;;;8.60;99.90;;;;;;5071240;28;19924;-72
2022/12/11 05:44:10;;;;;;;;;;;8.70;99.90;;;;;;5075223;28;19912;-72
2022/12/11 05:46:36;;;;;;;;;;;8.60;99.90;;;;;;5066029;28;19912;-71
2022/12/11 05:49:16;;;;;;;;;;;8.60;99.90;;;;;;5066392;28;19927;-72
2022/12/11 05:51:42;;;;;;;;;;;8.60;99.90;;;;;;5064614;28;19913;-73
2022/12/11 05:54:09;;;;;;;;;;;8.60;99.90;;;;;;5073229;28;20402;-74
2022/12/11 05:56:35;;;;;;;;;;;8.70;99.90;;;;;;5064559;28;19989;-72
2022/12/11 05:59:01;;;;;;;;;;;8.60;99.90;;;;;;5054110;28;19956;-72
2022/12/11 06:01:31;;;;;;;;;;;8.70;99.90;;;;;;5056597;28;19922;-72
2022/12/11 06:04:06;;;;;;;;;;;8.70;99.90;;;;;;5055492;28;20018;-75
2022/12/11 06:06:32;;;;;;;;;;;8.60;99.90;;;;;;5057929;28;19959;-72
2022/12/11 06:09:01;;;;;;;;;;;8.70;99.90;;;;;;5069115;28;20253;-73
2022/12/11 06:11:28;;;;;;;;;;;8.70;99.90;;;;;;5067077;28;19947;-72
2022/12/11 06:14:04;;;;;;;;;;;8.70;99.90;;;;;;5070674;28;19956;-72
2022/12/11 06:16:30;;;;;;;;;;;8.70;99.90;;;;;;5064346;28;20533;-72
2022/12/11 06:19:03;;;;;;;;;;;8.70;99.90;;;;;;5053986;28;20572;-72
2022/12/11 06:21:30;;;;;;;;;;;8.70;99.90;;;;;;5055268;28;19960;-72
2022/12/11 06:24:04;;;;;;;;;;;8.70;99.90;;;;;;5057308;28;19931;-72
2022/12/11 06:26:36;;;;;;;;;;;8.60;99.90;;;;;;5043009;28;19921;-72
2022/12/11 06:29:02;;;;;;;;;;;8.70;99.90;;;;;;5057320;28;19950;-72
2022/12/11 06:32:10;;;;;;;;;;;;;;;;;;;;;
2022/12/11 06:34:39;;;;;;;;;;;8.70;99.90;;;;;;4955734;28;19914;-72
2022/12/11 06:37:06;;;;;;;;;;;8.70;99.90;;;;;;5026048;28;19925;-72
2022/12/11 06:39:52;;;;;;;;;;;8.80;99.90;;;;;;5054522;28;20422;-72
2022/12/11 06:42:18;;;;;;;;;;;8.80;99.90;;;;;;5054961;28;19943;-72
2022/12/11 06:44:43;;;;;;;;;;;8.70;99.90;;;;;;5057239;28;19921;-72
2022/12/11 06:47:11;;;;;;;;;;;8.70;99.90;;;;;;5055453;28;19920;-73
2022/12/11 06:49:37;;;;;;;;;;;8.80;99.90;;;;;;5055662;28;20272;-72
2022/12/11 06:55:04;;;;;;;;;;;8.80;99.90;;;;;;5055835;28;20582;-72
2022/12/11 06:57:30;;;;;;;;;;;8.90;99.90;;;;;;5054140;28;19926;-72
2022/12/11 07:00:03;;;;;;;;;;;8.90;99.90;;;;;;5056251;28;19913;-72
2022/12/11 07:02:29;;;;;;;;;;;8.90;99.90;;;;;;5055258;28;19988;-71
2022/12/11 07:04:55;;;;;;;;;;;8.90;99.90;;;;;;5058296;28;19963;-73
2022/12/11 07:07:24;;;;;;;;;;;9.00;99.90;;;;;;5044441;28;20013;-72
2022/12/11 07:09:57;;;;;;;;;;;9.10;99.90;;;;;;5056641;28;19913;-72
2022/12/11 07:12:52;;;;;;;;;;;9.10;99.90;;;;;;5061672;28;20050;-71
2022/12/11 07:15:18;;;;;;;;;;;9.10;99.90;;;;;;5043608;28;19921;-71
2022/12/11 07:17:43;;;;;;;;;;;9.10;99.90;;;;;;5061654;28;19912;-71
2022/12/11 07:20:12;;;;;;;;;;;9.10;99.90;;;;;;5059347;28;19923;-71
2022/12/11 07:22:38;;;;;;;;;;;9.10;99.90;;;;;;5059726;28;20327;-71
2022/12/11 07:28:10;;;;;;;;;;;9.30;99.90;;;;;;5064202;28;19920;-72
2022/12/11 07:30:37;;;;;;;;;;;9.20;99.90;;;;;;5061603;28;19912;-71
2022/12/11 07:33:03;;;;;;;;;;;9.20;99.90;;;;;;5062225;28;19916;-72
2022/12/11 07:35:31;;;;;;;;;;;9.20;99.90;;;;;;5060241;28;19952;-71
2022/12/11 07:38:00;;;;;;;;;;;9.20;99.90;;;;;;5061080;28;19919;-71
2022/12/11 07:40:26;;;;;;;;;;;9.10;99.90;;;;;;5061465;28;19921;-70
2022/12/11 07:42:52;;;;;;;;;;;9.20;99.90;;;;;;5052950;28;19995;-73
2022/12/11 07:45:17;;;;;;;;;;;9.10;99.90;;;;;;5061058;28;21174;-73
2022/12/11 07:47:46;;;;;;;;;;;9.10;99.90;;;;;;5059448;28;19916;-73
2022/12/11 07:50:12;;;;;;;;;;;9.10;99.90;;;;;;5060396;28;19912;-73
2022/12/11 07:52:38;;;;;;;;;;;9.10;99.90;;;;;;5061237;28;19981;-72
2022/12/11 07:58:00;;;;;;;;;;;;;;;;;;;;;
2022/12/11 08:00:26;;;;;;;;;;;9.10;99.90;;;;;;5078210;28;19919;-74
2022/12/11 08:02:51;;;;;;;;;;;9.00;99.90;;;;;;5074982;28;19960;-75
2022/12/11 08:05:36;;;;;;;;;;;9.00;99.90;;;;;;5062376;28;19913;-74
2022/12/11 08:08:01;;;;;;;;;;;9.00;99.90;;;;;;5062539;28;20523;-74
2022/12/11 08:10:27;;;;;;;;;;;9.00;99.90;;;;;;5063565;28;19935;-75
2022/12/11 08:12:56;;;;;;;;;;;8.90;99.90;;;;;;5074512;28;19916;-75
2022/12/11 08:15:24;;;;;;;;;;;8.80;99.90;;;;;;5070694;28;20397;-74
2022/12/11 08:17:59;;;;;;;;;;;8.70;99.90;;;;;;5071557;28;19913;-75
2022/12/11 08:20:25;;;;;;;;;;;8.80;99.90;;;;;;5075486;28;19917;-73
2022/12/11 08:22:51;;;;;;;;;;;8.70;99.90;;;;;;5074438;28;19965;-73
2022/12/11 08:25:19;;;;;;;;;;;8.70;99.90;;;;;;5060001;28;19916;-74
2022/12/11 08:27:45;;;;;;;;;;;8.50;99.90;;;;;;5073531;28;20292;-74
2022/12/11 08:30:11;;;;;;;;;;;8.50;99.90;;;;;;5072278;28;19918;-72
2022/12/11 08:32:40;;;;;;;;;;;8.50;99.90;;;;;;5068992;28;19952;-78
2022/12/11 08:35:06;;;;;;;;;;;8.40;99.90;;;;;;5065531;28;19948;-78
2022/12/11 08:37:32;;;;;;;;;;;8.40;99.90;;;;;;5050159;28;19940;-73
2022/12/11 08:39:58;;;;;;;;;;;8.30;99.90;;;;;;5067637;28;19967;-73
2022/12/11 08:42:24;;;;;;;;;;;8.30;99.90;;;;;;5067433;28;20288;-76
2022/12/11 08:44:57;;;;;;;;;;;8.30;99.90;;;;;;5060246;28;19963;-74
2022/12/11 08:47:23;;;;;;;;;;;8.20;99.90;;;;;;5067341;28;19931;-72
2022/12/11 08:49:48;;;;;;;;;;;8.20;99.90;;;;;;5074727;28;19912;-76
2022/12/11 08:52:14;;;;;;;;;;;8.10;99.90;;;;;;5068635;28;19936;-72
2022/12/11 08:54:40;;;;;;;;;;;8.00;99.90;;;;;;5074547;28;19913;-73
2022/12/11 08:57:06;;;;;;;;;;;8.00;99.90;;;;;;5070396;28;20008;-72
2022/12/11 08:59:34;;;;;;;;;;;7.80;99.90;;;;;;5071455;28;19958;-72
2022/12/11 09:01:59;;;;;;;;;;;7.70;99.90;;;;;;5072371;28;19935;-73
2022/12/11 09:04:25;;;;;;;;;;;7.60;99.90;;;;;;5071099;28;19913;-73
2022/12/11 09:07:11;;;;;;;;;;;7.50;99.90;;;;;;5070954;28;19913;-72
2022/12/11 09:09:40;;;;;;;;;;;7.40;99.90;;;;;;5052481;28;19920;-72
2022/12/11 09:12:12;;;;;;;;;;;7.30;99.90;;;;;;5058201;28;20297;-73
2022/12/11 09:14:38;;;;;;;;;;;7.30;99.90;;;;;;5064890;28;19913;-73
2022/12/11 09:17:22;;;;;;;;;;;7.20;99.90;;;;;;5045478;28;20059;-73
2022/12/11 09:19:48;;;;;;;;;;;7.20;99.90;;;;;;5057018;28;20426;-72
2022/12/11 09:22:14;;;;;;;;;;;7.30;99.90;;;;;;5066392;28;20003;-72
2022/12/11 09:24:45;;;;;;;;;;;7.30;99.90;;;;;;5055723;28;19913;-73
2022/12/11 09:27:11;;;;;;;;;;;7.30;99.90;;;;;;5052030;28;20372;-69
2022/12/11 09:29:37;;;;;;;;;;;7.30;99.90;;;;;;5065566;28;20027;-71
2022/12/11 09:32:03;;;;;;;;;;;7.40;99.90;;;;;;5066649;28;19977;-72
2022/12/11 09:34:29;;;;;;;;;;;7.50;99.90;;;;;;5066944;28;19908;-72
2022/12/11 09:36:56;;;;;;;;;;;7.50;99.90;;;;;;5048107;28;19916;-73
2022/12/11 09:39:25;;;;;;;;;;;7.60;99.90;;;;;;5072324;28;19908;-72
2022/12/11 09:41:51;;;;;;;;;;;7.60;99.90;;;;;;5067477;28;19986;-72
2022/12/11 09:44:49;;;;;;;;;;;7.70;99.90;;;;;;5067032;28;19916;-72
2022/12/11 09:47:35;;;;;;;;;;;7.70;99.90;;;;;;5064032;28;19913;-72
2022/12/11 09:50:09;;;;;;;;;;;7.80;99.90;;;;;;5069530;28;19982;-72
2022/12/11 09:52:53;;;;;;;;;;;7.80;99.90;;;;;;5063355;28;19919;-72
2022/12/11 09:55:22;;;;;;;;;;;7.80;99.90;;;;;;5066243;28;19923;-72
2022/12/11 09:58:16;;;;;;;;;;;7.90;99.90;;;;;;5069376;28;19943;-72
2022/12/11 10:00:46;;;;;;;;;;;7.90;99.90;;;;;;5064281;28;20294;-71
2022/12/11 10:03:21;;;;;;;;;;;7.90;99.90;;;;;;5070578;28;19970;-72
2022/12/11 10:06:07;;;;;;;;;;;7.90;99.90;;;;;;5053667;28;20400;-75
2022/12/11 10:08:52;;;;;;;;;;;8.00;99.90;;;;;;5068100;28;19954;-72
2022/12/11 10:11:40;;;;;;;;;;;8.00;99.90;;;;;;5067432;28;19919;-72
2022/12/11 10:14:24;;;;;;;;;;;8.00;99.90;;;;;;5052413;28;20365;-72
2022/12/11 10:16:58;;;;;;;;;;;7.90;99.90;;;;;;5063210;28;19917;-72
2022/12/11 10:19:33;;;;;;;;;;;7.90;99.90;;;;;;5074004;28;19954;-72
2022/12/11 10:22:00;;;;;;;;;;;7.80;99.90;;;;;;5064537;28;19944;-73
2022/12/11 10:24:25;;;;;;;;;;;7.90;99.90;;;;;;5072312;28;19913;-73
2022/12/11 10:26:57;;;;;;;;;;;7.90;99.90;;;;;;5063660;28;20451;-73
2022/12/11 10:29:27;;;;;;;;;;;7.90;99.90;;;;;;5087357;28;20264;-72
2022/12/11 10:31:55;;;;;;;;;;;7.80;99.90;;;;;;5066491;28;19920;-73
2022/12/11 10:34:47;;;;;;;;;;;7.90;99.90;;;;;;5063014;28;20376;-72
2022/12/11 10:37:13;;;;;;;;;;;7.80;99.90;;;;;;5068724;28;20356;-73
2022/12/11 10:39:48;;;;;;;;;;;7.80;99.90;;;;;;5072442;28;20292;-73
2022/12/11 10:42:19;;;;;;;;;;;7.70;99.90;;;;;;5055745;28;19979;-72
2022/12/11 10:44:59;;;;;;;;;;;7.60;99.90;;;;;;5072307;28;19912;-72
2022/12/11 10:47:25;;;;;;;;;;;7.50;99.90;;;;;;5073080;28;19962;-72
2022/12/11 10:50:01;;;;;;;;;;;7.50;99.90;;;;;;5073125;28;20398;-72
2022/12/11 10:52:30;;;;;;;;;;;7.40;99.90;;;;;;5068212;28;19919;-72
2022/12/11 10:55:01;;;;;;;;;;;7.50;99.90;;;;;;5069747;28;19944;-72
2022/12/11 10:57:28;;;;;;;;;;;7.50;99.90;;;;;;5066137;28;19913;-72
2022/12/11 10:59:54;;;;;;;;;;;7.50;99.90;;;;;;5072437;28;20001;-72
2022/12/11 11:02:20;;;;;;;;;;;7.50;99.90;;;;;;5065298;28;19929;-73
2022/12/11 11:04:46;;;;;;;;;;;7.50;99.90;;;;;;5072120;28;19912;-72
2022/12/11 11:07:12;;;;;;;;;;;7.40;99.90;;;;;;5059843;28;20221;-73
2022/12/11 11:09:41;;;;;;;;;;;7.40;99.90;;;;;;5066787;28;19916;-72
2022/12/11 11:12:27;;;;;;;;;;;7.30;99.90;;;;;;5068433;28;20291;-73
2022/12/11 11:15:05;;;;;;;;;;;7.20;99.90;;;;;;5068433;28;19912;-72
2022/12/11 11:17:32;;;;;;;;;;;7.20;99.90;;;;;;5068620;28;20387;-73
2022/12/11 11:20:00;;;;;;;;;;;7.00;99.90;;;;;;5066344;28;19919;-73
2022/12/11 11:22:26;;;;;;;;;;;7.00;99.90;;;;;;5066761;28;19928;-72
2022/12/11 11:24:52;;;;;;;;;;;7.00;99.90;;;;;;5066364;28;19913;-72
2022/12/11 11:27:28;;;;;;;;;;;6.90;99.90;;;;;;5054827;28;19920;-73
2022/12/11 11:29:55;;;;;;;;;;;6.90;99.90;;;;;;5071457;28;19908;-73
2022/12/11 11:32:31;;;;;;;;;;;6.90;99.90;;;;;;5069668;28;19947;-73
2022/12/11 11:35:09;;;;;;;;;;;6.80;99.90;;;;;;5050541;28;20006;-72
2022/12/11 11:37:34;;;;;;;;;;;6.70;99.90;;;;;;5064833;28;19924;-73
2022/12/11 11:40:20;;;;;;;;;;;6.50;99.90;;;;;;5072679;28;19916;-73
2022/12/11 11:42:49;;;;;;;;;;;6.50;99.90;;;;;;5068673;28;20002;-72
2022/12/11 11:45:18;;;;;;;;;;;6.40;99.90;;;;;;5068613;28;20244;-72
2022/12/11 11:47:52;;;;;;;;;;;6.40;99.90;;;;;;5065412;28;20336;-73
2022/12/11 11:50:21;;;;;;;;;;;6.40;99.90;;;;;;5065984;28;19912;-73
2022/12/11 11:52:56;;;;;;;;;;;6.30;99.90;;;;;;5062215;28;19971;-73
2022/12/11 11:55:42;;;;;;;;;;;6.30;99.90;;;;;;5070267;28;19973;-73
2022/12/11 11:58:08;;;;;;;;;;;6.30;99.90;;;;;;5072845;28;19912;-72
2022/12/11 12:00:33;;;;;;;;;;;6.30;99.90;;;;;;5071813;28;19919;-72
2022/12/11 12:03:00;;;;;;;;;;;6.30;99.90;;;;;;5071211;28;20257;-73
2022/12/11 12:05:36;;;;;;;;;;;6.30;99.90;;;;;;5076315;28;19909;-73
2022/12/11 12:08:08;;;;;;;;;;;6.30;99.90;;;;;;5063871;28;19955;-73
2022/12/11 12:10:53;;;;;;;;;;;6.30;99.90;;;;;;5075577;28;20021;-73
2022/12/11 12:13:25;;;;;;;;;;;6.30;99.90;;;;;;5068169;28;19943;-72
2022/12/11 12:15:55;;;;;;;;;;;6.30;99.90;;;;;;5075109;28;19917;-73
2022/12/11 12:18:39;;;;;;;;;;;6.40;99.90;;;;;;5055481;28;20069;-73
2022/12/11 12:21:11;;;;;;;;;;;6.30;99.90;;;;;;5073819;28;20265;-73
2022/12/11 12:23:55;;;;;;;;;;;6.20;99.90;;;;;;5069711;28;19916;-73
2022/12/11 12:26:32;;;;;;;;;;;6.30;99.90;;;;;;5072038;28;19917;-73
2022/12/11 12:29:02;;;;;;;;;;;6.40;99.90;;;;;;5062474;28;19908;-73
2022/12/11 12:31:33;;;;;;;;;;;6.40;99.90;;;;;;5071557;28;20003;-72
2022/12/11 12:34:11;;;;;;;;;;;6.50;99.90;;;;;;5064383;28;20421;-72
2022/12/11 12:36:49;;;;;;;;;;;6.50;99.90;;;;;;5069094;28;19916;-72
2022/12/11 12:39:17;;;;;;;;;;;6.40;99.90;;;;;;5072460;28;20489;-72
2022/12/11 12:41:46;;;;;;;;;;;6.30;99.90;;;;;;5065794;28;19920;-73
2022/12/11 12:44:16;;;;;;;;;;;6.30;99.90;;;;;;5074638;28;19913;-73
2022/12/11 12:46:51;;;;;;;;;;;6.40;99.90;;;;;;5071870;28;19912;-73
2022/12/11 12:49:40;;;;;;;;;;;6.40;99.90;;;;;;5074759;28;19912;-72
2022/12/11 12:52:10;;;;;;;;;;;6.40;99.90;;;;;;5062683;28;20399;-73
2022/12/11 12:54:36;;;;;;;;;;;6.20;99.90;;;;;;5069664;28;20389;-73
2022/12/11 12:57:03;;;;;;;;;;;6.30;99.90;;;;;;5071349;28;19916;-73
2022/12/11 12:59:28;;;;;;;;;;;6.40;99.90;;;;;;5071085;28;19919;-72
2022/12/11 13:02:05;;;;;;;;;;;6.40;99.90;;;;;;5066621;28;19913;-72
2022/12/11 13:04:38;;;;;;;;;;;6.40;99.90;;;;;;5074567;28;19928;-73
2022/12/11 13:07:22;;;;;;;;;;;6.40;99.90;;;;;;5067690;28;20033;-72
2022/12/11 13:09:57;;;;;;;;;;;6.40;99.90;;;;;;5071090;28;19912;-72
2022/12/11 13:12:30;;;;;;;;;;;6.40;99.90;;;;;;5062994;28;20000;-73
2022/12/11 13:14:56;;;;;;;;;;;6.50;99.90;;;;;;5053124;28;20089;-73
2022/12/11 13:17:24;;;;;;;;;;;6.50;99.90;;;;;;5066956;28;20020;-72
2022/12/11 13:19:56;;;;;;;;;;;6.50;99.90;;;;;;5074859;28;19912;-72
2022/12/11 13:22:25;;;;;;;;;;;6.60;99.90;;;;;;5064656;28;19913;-72
2022/12/11 13:24:50;;;;;;;;;;;6.60;99.90;;;;;;5073063;28;19912;-73
2022/12/11 13:27:23;;;;;;;;;;;6.50;99.90;;;;;;5065276;28;19913;-72
2022/12/11 13:29:49;;;;;;;;;;;6.50;99.90;;;;;;5068022;28;20380;-73
2022/12/11 13:32:15;;;;;;;;;;;6.20;99.90;;;;;;5053095;28;19917;-73
2022/12/11 13:34:43;;;;;;;;;;;6.20;99.90;;;;;;5074351;28;19951;-72
2022/12/11 13:37:25;;;;;;;;;;;6.20;99.90;;;;;;5070070;28;19916;-73
2022/12/11 13:39:51;;;;;;;;;;;6.10;99.90;;;;;;5050357;28;19920;-73
2022/12/11 13:42:26;;;;;;;;;;;6.00;99.90;;;;;;5064093;28;19913;-72
2022/12/11 13:44:52;;;;;;;;;;;5.90;99.90;;;;;;5070168;28;19957;-72
2022/12/11 13:47:18;;;;;;;;;;;5.80;99.90;;;;;;5067435;28;19917;-73
2022/12/11 13:49:48;;;;;;;;;;;5.70;99.90;;;;;;5067737;28;20050;-73
2022/12/11 13:52:17;;;;;;;;;;;5.60;99.90;;;;;;5064872;28;19916;-72
2022/12/11 13:54:50;;;;;;;;;;;5.60;99.90;;;;;;5061621;28;20427;-72
2022/12/11 13:57:22;;;;;;;;;;;5.50;99.90;;;;;;5068114;28;19977;-73
2022/12/11 13:59:48;;;;;;;;;;;5.50;99.90;;;;;;5067667;28;19920;-72
2022/12/11 14:02:14;;;;;;;;;;;5.50;99.90;;;;;;5072713;28;19963;-72
2022/12/11 14:04:40;;;;;;;;;;;5.50;99.90;;;;;;5073548;28;20273;-72
2022/12/11 14:07:07;;;;;;;;;;;5.40;99.90;;;;;;5068031;28;19912;-72
2022/12/11 14:09:35;;;;;;;;;;;5.50;99.90;;;;;;5070485;28;20516;-73
2022/12/11 14:12:01;;;;;;;;;;;5.50;99.90;;;;;;5070561;28;19913;-72
2022/12/11 14:14:43;;;;;;;;;;;5.40;99.90;;;;;;5070017;28;19912;-72
2022/12/11 14:17:12;;;;;;;;;;;5.40;99.90;;;;;;5067360;28;19917;-73
2022/12/11 14:19:38;;;;;;;;;;;5.30;99.90;;;;;;5087606;28;19915;-72
2022/12/11 14:22:06;;;;;;;;;;;5.30;99.90;;;;;;5071770;28;19997;-73
2022/12/11 14:24:32;;;;;;;;;;;5.20;99.90;;;;;;5073709;28;19908;-72
2022/12/11 14:26:58;;;;;;;;;;;5.30;99.90;;;;;;5070378;28;19946;-72
2022/12/11 14:29:24;;;;;;;;;;;5.30;99.90;;;;;;5073656;28;19908;-71
2022/12/11 14:31:51;;;;;;;;;;;5.10;99.90;;;;;;5066956;28;19912;-72
2022/12/11 14:34:19;;;;;;;;;;;5.10;99.90;;;;;;5070160;28;19915;-72
2022/12/11 14:36:46;;;;;;;;;;;5.10;99.90;;;;;;5066391;28;20368;-73
2022/12/11 14:39:12;;;;;;;;;;;5.00;99.90;;;;;;5067870;28;19966;-72
2022/12/11 14:41:38;;;;;;;;;;;5.00;99.90;;;;;;5065163;28;19916;-72
2022/12/11 14:44:06;;;;;;;;;;;5.00;99.90;;;;;;5066073;28;20007;-72
2022/12/11 14:46:42;;;;;;;;;;;4.90;99.90;;;;;;5063751;28;19913;-72
2022/12/11 14:49:40;;;;;;;;;;;5.00;99.90;;;;;;5068193;28;19934;-72
2022/12/11 14:52:11;;;;;;;;;;;5.10;99.90;;;;;;5029613;28;19913;-72
2022/12/11 14:54:39;;;;;;;;;;;5.10;99.90;;;;;;5068648;28;19922;-72
2022/12/11 14:57:05;;;;;;;;;;;5.20;99.90;;;;;;5053947;28;19924;-72
2022/12/11 14:59:37;;;;;;;;;;;5.20;99.90;;;;;;5073542;28;19919;-73
2022/12/11 15:02:19;;;;;;;;;;;5.10;99.90;;;;;;5069394;28;19938;-72
2022/12/11 15:04:56;;;;;;;;;;;5.20;99.90;;;;;;5065795;28;19935;-72
2022/12/11 15:07:22;;;;;;;;;;;5.30;99.90;;;;;;5060860;28;19917;-73
2022/12/11 15:09:49;;;;;;;;;;;5.30;99.90;;;;;;5069585;28;20334;-73
2022/12/11 15:12:17;;;;;;;;;;;5.30;99.90;;;;;;5048599;28;19919;-72
2022/12/11 15:14:48;;;;;;;;;;;5.40;99.90;;;;;;5065278;28;19971;-73
2022/12/11 15:17:21;;;;;;;;;;;5.40;99.90;;;;;;5070705;28;20480;-72
2022/12/11 15:19:50;;;;;;;;;;;5.50;99.90;;;;;;5065000;28;19916;-72
2022/12/11 15:22:16;;;;;;;;;;;5.50;99.90;;;;;;5071062;28;20276;-73
2022/12/11 15:24:45;;;;;;;;;;;5.50;99.90;;;;;;5053473;28;19959;-73
2022/12/11 15:27:25;;;;;;;;;;;5.40;99.90;;;;;;5067420;28;20007;-72
2022/12/11 15:29:50;;;;;;;;;;;5.50;99.90;;;;;;5064212;28;19913;-71
2022/12/11 15:32:20;;;;;;;;;;;5.50;99.90;;;;;;5069204;28;19954;-72
2022/12/11 15:34:47;;;;;;;;;;;5.50;99.90;;;;;;5074096;28;19912;-72
2022/12/11 15:37:27;;;;;;;;;;;5.40;99.90;;;;;;5071766;28;19920;-73
2022/12/11 15:39:53;;;;;;;;;;;5.40;99.90;;;;;;5076546;28;19928;-73
2022/12/11 15:42:30;;;;;;;;;;;5.40;99.90;;;;;;5072000;28;19923;-73
2022/12/11 15:44:59;;;;;;;;;;;5.40;99.90;;;;;;5072270;28;19913;-73
2022/12/11 15:47:27;;;;;;;;;;;5.50;99.90;;;;;;5063375;28;19913;-73
2022/12/11 15:49:56;;;;;;;;;;;5.60;99.90;;;;;;5069021;28;19927;-73
2022/12/11 15:52:22;;;;;;;;;;;5.60;99.90;;;;;;5056743;28;19935;-74
2022/12/11 15:54:53;;;;;;;;;;;5.60;99.90;;;;;;5073898;28;20364;-72
2022/12/11 15:57:20;;;;;;;;;;;5.70;99.90;;;;;;5073962;28;19917;-73
2022/12/11 16:00:08;;;;;;;;;;;5.60;99.90;;;;;;5077360;28;19908;-72
2022/12/11 16:02:42;;;;;;;;;;;5.70;99.90;;;;;;5069995;28;19955;-72
2022/12/11 16:05:07;;;;;;;;;;;5.70;99.90;;;;;;5070669;28;19912;-72
2022/12/11 16:07:37;;;;;;;;;;;5.60;99.90;;;;;;5068281;28;19970;-72
2022/12/11 16:10:03;;;;;;;;;;;5.60;99.90;;;;;;5062197;28;20031;-72
2022/12/11 16:12:37;;;;;;;;;;;5.50;99.90;;;;;;5071856;28;19966;-72
2022/12/11 16:15:03;;;;;;;;;;;5.50;99.90;;;;;;5062079;28;19982;-72
2022/12/11 16:17:30;;;;;;;;;;;5.40;99.90;;;;;;5071763;28;19921;-71
2022/12/11 16:20:07;;;;;;;;;;;5.30;99.90;;;;;;5064474;28;19913;-75
2022/12/11 16:22:33;;;;;;;;;;;5.20;99.90;;;;;;5077053;28;20525;-73
2022/12/11 16:24:59;;;;;;;;;;;5.10;99.90;;;;;;5075664;28;20010;-72
2022/12/11 16:27:25;;;;;;;;;;;5.10;99.90;;;;;;5074767;28;19915;-71
2022/12/11 16:29:57;;;;;;;;;;;5.00;99.90;;;;;;5073309;28;20342;-71
2022/12/11 16:32:22;;;;;;;;;;;4.90;99.90;;;;;;5074926;28;19965;-71
2022/12/11 16:34:48;;;;;;;;;;;4.90;99.90;;;;;;5075251;28;19964;-71
2022/12/11 16:37:23;;;;;;;;;;;4.80;99.90;;;;;;5073315;28;20451;-72
2022/12/11 16:39:52;;;;;;;;;;;4.70;99.90;;;;;;5072005;28;19995;-71
2022/12/11 16:42:18;;;;;;;;;;;4.70;99.90;;;;;;5074862;28;20384;-72